Time;durP1;ratioP1;P1;durP2;ratioP2;P2;SDS_P1;SDS_P2;PMS_P1;PMS_P2;Temp;Humidity;BMP_temperature;BMP_pressure;BME280_temperature;BME280_humidity;BME280_pressure;Samples;Min_cycle;Max_cycle;Signal;HPM_P1;HPM_P2
2022/12/10 00:01:05;;;;;;;12.00;8.90;;;18.60;30.10;;;;;;5051892;28;20495;-54
2022/12/10 00:03:31;;;;;;;9.93;8.07;;;18.70;30.10;;;;;;5035095;28;20341;-49
2022/12/10 00:06:01;;;;;;;11.82;8.45;;;18.60;30.00;;;;;;5034302;28;20021;-53
2022/12/10 00:08:27;;;;;;;10.60;8.57;;;18.60;30.10;;;;;;5046543;28;20064;-53
2022/12/10 00:10:53;;;;;;;11.48;8.77;;;18.60;30.10;;;;;;5054857;28;20448;-54
2022/12/10 00:13:18;;;;;;;10.25;8.27;;;18.60;30.10;;;;;;5053637;28;20048;-58
2022/12/10 00:15:44;;;;;;;10.27;7.82;;;18.60;30.10;;;;;;5054857;28;20133;-55
2022/12/10 00:18:10;;;;;;;10.55;8.30;;;18.60;30.10;;;;;;5027907;28;20107;-52
2022/12/10 00:20:37;;;;;;;11.02;8.55;;;18.60;30.10;;;;;;5034924;28;20392;-56
2022/12/10 00:23:03;;;;;;;10.25;8.15;;;18.60;30.10;;;;;;5017431;28;20025;-56
2022/12/10 00:25:29;;;;;;;10.73;8.20;;;18.60;30.10;;;;;;5034765;28;20033;-58
2022/12/10 00:27:55;;;;;;;10.30;8.32;;;18.60;30.10;;;;;;5035190;28;20033;-55
2022/12/10 00:30:20;;;;;;;11.48;8.55;;;18.60;30.10;;;;;;5034825;28;20037;-57
2022/12/10 00:32:46;;;;;;;10.85;8.73;;;18.60;30.10;;;;;;5042524;28;20036;-54
2022/12/10 00:35:12;;;;;;;10.18;8.23;;;18.60;30.10;;;;;;5037128;28;20025;-53
2022/12/10 00:37:38;;;;;;;11.70;9.02;;;18.60;30.10;;;;;;5055067;28;20352;-54
2022/12/10 00:40:05;;;;;;;11.18;8.38;;;18.60;30.10;;;;;;5054659;28;20436;-56
2022/12/10 00:42:30;;;;;;;9.82;7.95;;;18.60;30.10;;;;;;5037644;28;20017;-56
2022/12/10 00:44:56;;;;;;;11.80;8.82;;;18.50;30.00;;;;;;5037041;28;20346;-56
2022/12/10 00:47:22;;;;;;;11.90;8.25;;;18.60;30.10;;;;;;5030174;28;20066;-52
2022/12/10 00:49:48;;;;;;;10.80;8.70;;;18.50;30.00;;;;;;5034707;28;20457;-53
2022/12/10 00:52:14;;;;;;;9.15;8.00;;;18.50;30.00;;;;;;5041421;28;20056;-55
2022/12/10 00:54:40;;;;;;;10.07;8.57;;;18.50;30.00;;;;;;5020052;28;20103;-58
2022/12/10 00:57:06;;;;;;;10.15;8.40;;;18.50;30.00;;;;;;5036731;28;20033;-53
2022/12/10 00:59:32;;;;;;;11.63;8.93;;;18.50;30.00;;;;;;5036776;28;20190;-53
2022/12/10 01:01:58;;;;;;;11.63;8.80;;;18.50;30.00;;;;;;5054412;28;20148;-54
2022/12/10 01:04:24;;;;;;;11.13;8.32;;;18.50;30.00;;;;;;5037052;28;20048;-55
2022/12/10 01:06:52;;;;;;;10.43;8.20;;;18.50;30.00;;;;;;5036781;28;20033;-56
2022/12/10 01:09:27;;;;;;;11.20;8.55;;;18.50;30.00;;;;;;5046199;28;20116;-53
2022/12/10 01:11:54;;;;;;;9.57;8.25;;;18.50;30.00;;;;;;5034389;28;20056;-55
2022/12/10 01:14:24;;;;;;;9.40;8.00;;;18.50;30.00;;;;;;5017200;28;20398;-58
2022/12/10 01:16:55;;;;;;;10.55;8.07;;;18.50;30.00;;;;;;5017987;28;20463;-57
2022/12/10 01:19:21;;;;;;;10.40;7.80;;;18.50;30.00;;;;;;5056226;28;20033;-55
2022/12/10 01:21:53;;;;;;;8.90;7.55;;;18.50;30.00;;;;;;5040213;28;20033;-57
2022/12/10 01:24:21;;;;;;;10.60;9.00;;;18.50;30.00;;;;;;5040293;28;20036;-57
2022/12/10 01:26:46;;;;;;;9.30;8.05;;;18.50;30.00;;;;;;5040485;28;20044;-54
2022/12/10 01:29:12;;;;;;;9.48;7.53;;;18.50;30.00;;;;;;5040328;28;20037;-57
2022/12/10 01:31:40;;;;;;;11.85;9.07;;;18.50;30.00;;;;;;5057973;28;20029;-57
2022/12/10 01:34:09;;;;;;;11.10;8.52;;;18.50;30.00;;;;;;5039363;28;20034;-54
2022/12/10 01:36:37;;;;;;;10.43;8.80;;;18.50;30.00;;;;;;5038419;28;20060;-56
2022/12/10 01:39:06;;;;;;;10.27;8.45;;;18.50;30.00;;;;;;5020492;28;20037;-55
2022/12/10 01:41:42;;;;;;;12.43;9.02;;;18.50;30.00;;;;;;5038039;28;20044;-57
2022/12/10 01:44:09;;;;;;;10.75;8.75;;;18.50;30.00;;;;;;5020868;28;20486;-50
2022/12/10 01:46:56;;;;;;;10.57;7.90;;;18.50;30.00;;;;;;5037978;28;20037;-53
2022/12/10 01:49:38;;;;;;;11.05;8.93;;;18.50;30.00;;;;;;5039892;28;20029;-55
2022/12/10 01:52:07;;;;;;;10.98;8.38;;;18.40;30.00;;;;;;5023427;28;20352;-56
2022/12/10 01:54:42;;;;;;;10.07;8.77;;;18.40;30.00;;;;;;5058455;28;20472;-58
2022/12/10 01:57:13;;;;;;;9.18;8.07;;;18.50;30.00;;;;;;5039695;28;20056;-54
2022/12/10 01:59:40;;;;;;;11.02;8.43;;;18.50;30.00;;;;;;5035779;28;20033;-53
2022/12/10 02:02:13;;;;;;;9.57;8.15;;;18.40;29.90;;;;;;5020007;28;20127;-53
2022/12/10 02:04:57;;;;;;;10.30;8.20;;;18.40;29.90;;;;;;5019950;28;20087;-58
2022/12/10 02:07:30;;;;;;;10.32;8.52;;;18.40;29.90;;;;;;5039746;28;20029;-54
2022/12/10 02:10:24;;;;;;;10.10;8.18;;;18.40;29.90;;;;;;5056926;28;20111;-55
2022/12/10 02:13:15;;;;;;;9.70;8.35;;;18.40;29.90;;;;;;5021123;28;20096;-54
2022/12/10 02:16:06;;;;;;;10.15;8.25;;;18.40;29.90;;;;;;5019465;28;20463;-53
2022/12/10 02:18:36;;;;;;;10.73;8.60;;;18.40;29.90;;;;;;5049560;28;20056;-53
2022/12/10 02:21:30;;;;;;;9.85;7.53;;;18.40;29.90;;;;;;5039750;28;20403;-56
2022/12/10 02:24:04;;;;;;;11.60;8.25;;;18.40;29.90;;;;;;5039621;28;20028;-56
2022/12/10 02:26:51;;;;;;;9.95;8.05;;;18.40;29.90;;;;;;5039409;28;20793;-55
2022/12/10 02:29:21;;;;;;;11.02;8.68;;;18.40;29.90;;;;;;5038304;28;20082;-57
2022/12/10 02:32:03;;;;;;;10.95;7.85;;;18.40;29.90;;;;;;5056341;28;20130;-56
2022/12/10 02:34:36;;;;;;;10.38;8.32;;;18.30;29.90;;;;;;5039035;28;20451;-55
2022/12/10 02:37:10;;;;;;;9.23;7.88;;;18.40;29.90;;;;;;5039574;28;20405;-54
2022/12/10 02:39:43;;;;;;;10.20;8.30;;;18.40;29.90;;;;;;5038630;28;20049;-52
2022/12/10 02:42:09;;;;;;;10.05;8.15;;;18.40;29.90;;;;;;5038944;28;20120;-58
2022/12/10 02:44:39;;;;;;;10.18;8.05;;;18.30;29.90;;;;;;5037221;28;20036;-55
2022/12/10 02:47:07;;;;;;;9.75;7.63;;;18.30;29.80;;;;;;5038789;28;20033;-56
2022/12/10 02:49:39;;;;;;;10.63;8.30;;;18.40;29.90;;;;;;5037987;28;20056;-55
2022/12/10 02:52:11;;;;;;;10.32;7.97;;;18.30;29.80;;;;;;5022025;28;20032;-56
2022/12/10 02:54:46;;;;;;;10.05;7.95;;;18.30;29.90;;;;;;5038821;28;20039;-55
2022/12/10 02:57:16;;;;;;;9.00;7.53;;;18.30;29.80;;;;;;5038240;28;20214;-57
2022/12/10 02:59:57;;;;;;;10.57;8.63;;;18.40;29.90;;;;;;5038733;28;20063;-57
2022/12/10 03:02:48;;;;;;;8.25;6.80;;;18.30;29.80;;;;;;5056095;28;20033;-56
2022/12/10 03:05:17;;;;;;;10.65;8.40;;;18.40;29.80;;;;;;5055442;28;20035;-57
2022/12/10 03:07:57;;;;;;;10.82;8.13;;;18.30;29.80;;;;;;5055692;28;20060;-55
2022/12/10 03:10:32;;;;;;;9.23;7.70;;;18.30;29.80;;;;;;5056195;28;20048;-54
2022/12/10 03:13:00;;;;;;;8.98;7.35;;;18.30;29.80;;;;;;5038305;28;20468;-56
2022/12/10 03:15:34;;;;;;;10.20;7.70;;;18.30;29.80;;;;;;5056109;28;20029;-58
2022/12/10 03:18:04;;;;;;;11.10;9.10;;;18.40;29.80;;;;;;5047850;28;20516;-54
2022/12/10 03:20:34;;;;;;;9.40;7.70;;;18.30;29.80;;;;;;5036070;28;20033;-56
2022/12/10 03:23:01;;;;;;;10.05;8.20;;;18.30;29.80;;;;;;5018600;28;20025;-55
2022/12/10 03:25:29;;;;;;;10.10;8.18;;;18.30;29.80;;;;;;5035561;28;20469;-56
2022/12/10 03:27:58;;;;;;;9.60;7.40;;;18.30;29.80;;;;;;5035684;28;20103;-59
2022/12/10 03:30:25;;;;;;;9.48;7.95;;;18.30;29.80;;;;;;5035877;28;20045;-54
2022/12/10 03:32:51;;;;;;;9.68;7.97;;;18.30;29.70;;;;;;5026839;28;20033;-55
2022/12/10 03:35:21;;;;;;;10.18;7.88;;;18.30;29.70;;;;;;5038245;28;20071;-58
2022/12/10 03:37:49;;;;;;;10.30;8.30;;;18.30;29.70;;;;;;5055419;28;20044;-55
2022/12/10 03:40:17;;;;;;;9.55;7.82;;;18.30;29.80;;;;;;5054617;28;20494;-58
2022/12/10 03:42:43;;;;;;;10.50;8.13;;;18.30;29.80;;;;;;5043913;28;20099;-57
2022/12/10 03:45:10;;;;;;;8.95;7.45;;;18.30;29.70;;;;;;5035765;28;20037;-54
2022/12/10 03:47:36;;;;;;;10.30;7.82;;;18.30;29.70;;;;;;5035557;28;20037;-54
2022/12/10 03:50:02;;;;;;;9.45;7.65;;;18.30;29.70;;;;;;5037515;28;20111;-52
2022/12/10 03:52:28;;;;;;;10.60;8.43;;;18.30;29.70;;;;;;5055312;28;20090;-51
2022/12/10 03:54:54;;;;;;;9.73;8.05;;;18.30;29.80;;;;;;5055490;28;20028;-54
2022/12/10 03:57:20;;;;;;;8.60;7.35;;;18.30;29.70;;;;;;5044678;28;20037;-57
2022/12/10 03:59:46;;;;;;;9.88;7.55;;;18.30;29.70;;;;;;5035176;28;20065;-55
2022/12/10 04:02:12;;;;;;;10.00;7.72;;;18.30;29.70;;;;;;5038294;28;20033;-56
2022/12/10 04:04:37;;;;;;;10.35;7.88;;;18.30;29.70;;;;;;5054941;28;20033;-56
2022/12/10 04:07:03;;;;;;;10.68;7.75;;;18.30;29.70;;;;;;5037128;28;20071;-53
2022/12/10 04:09:29;;;;;;;10.38;8.00;;;18.30;29.70;;;;;;5050503;28;20067;-57
2022/12/10 04:11:56;;;;;;;10.65;8.13;;;18.30;29.70;;;;;;5054935;28;20060;-59
2022/12/10 04:17:08;;;;;;;10.35;7.68;;;18.30;29.70;;;;;;5035255;28;20030;-59
2022/12/10 04:19:33;;;;;;;9.85;7.82;;;18.30;29.70;;;;;;5053354;28;20348;-55
2022/12/10 04:27:35;;;;;;;11.32;8.30;;;18.30;29.70;;;;;;5054824;28;20036;-57
2022/12/10 04:30:01;;;;;;;10.32;7.68;;;18.30;29.70;;;;;;5037486;28;20459;-55
2022/12/10 04:32:28;;;;;;;10.90;7.95;;;18.30;29.70;;;;;;5054341;28;20025;-58
2022/12/10 04:34:54;;;;;;;9.75;7.80;;;18.30;29.70;;;;;;5054923;28;20345;-60
2022/12/10 04:37:21;;;;;;;11.10;8.35;;;18.30;29.70;;;;;;5054785;28;20353;-57
2022/12/10 04:39:49;;;;;;;9.25;7.32;;;18.30;29.70;;;;;;5052299;28;20041;-57
2022/12/10 04:42:14;;;;;;;11.20;8.30;;;18.30;29.70;;;;;;5017183;28;20029;-54
2022/12/10 04:44:40;;;;;;;10.63;8.32;;;18.30;29.70;;;;;;5034792;28;20045;-57
2022/12/10 04:47:08;;;;;;;13.23;8.93;;;18.30;29.70;;;;;;5034329;28;20041;-57
2022/12/10 04:49:34;;;;;;;12.10;9.15;;;18.30;29.70;;;;;;5034605;28;20041;-56
2022/12/10 04:52:01;;;;;;;11.85;8.75;;;18.30;29.70;;;;;;5036013;28;20021;-57
2022/12/10 04:54:27;;;;;;;11.10;8.88;;;18.30;29.70;;;;;;5038894;28;20033;-56
2022/12/10 04:56:53;;;;;;;11.45;8.95;;;18.30;29.70;;;;;;5039072;28;20025;-56
2022/12/10 04:59:19;;;;;;;13.30;10.50;;;18.30;29.70;;;;;;5038552;28;20033;-56
2022/12/10 05:01:45;;;;;;;11.40;9.27;;;18.30;29.70;;;;;;5038332;28;20342;-57
2022/12/10 05:04:13;;;;;;;14.55;9.48;;;18.30;29.70;;;;;;5038058;28;20029;-53
2022/12/10 05:06:40;;;;;;;14.05;10.35;;;18.30;29.70;;;;;;5038616;28;20052;-54
2022/12/10 05:09:06;;;;;;;13.57;10.18;;;18.30;29.70;;;;;;5037039;28;20087;-52
2022/12/10 05:11:33;;;;;;;13.73;10.75;;;18.30;29.70;;;;;;5057668;28;20441;-56
2022/12/10 05:14:00;;;;;;;13.68;10.32;;;18.30;29.70;;;;;;5058112;28;20037;-55
2022/12/10 05:16:28;;;;;;;13.95;10.50;;;18.30;29.70;;;;;;5057976;28;20033;-55
2022/12/10 05:18:55;;;;;;;14.20;10.88;;;18.30;30.20;;;;;;5057009;28;20120;-55
2022/12/10 05:21:23;;;;;;;14.30;11.27;;;18.30;29.70;;;;;;5058342;28;20381;-56
2022/12/10 05:23:51;;;;;;;16.98;11.55;;;18.30;29.70;;;;;;5057715;28;20053;-52
2022/12/10 05:26:21;;;;;;;15.57;11.20;;;18.30;29.70;;;;;;5040107;28;20029;-55
2022/12/10 05:28:49;;;;;;;15.60;11.52;;;18.30;29.70;;;;;;5057564;28;20025;-55
2022/12/10 05:31:33;;;;;;;15.50;11.02;;;18.30;29.70;;;;;;5058100;28;20040;-56
2022/12/10 05:33:59;;;;;;;14.98;11.40;;;18.30;29.70;;;;;;5038862;28;20532;-55
2022/12/10 05:36:27;;;;;;;15.15;11.93;;;18.30;29.70;;;;;;5037640;28;20163;-55
2022/12/10 05:38:55;;;;;;;17.27;12.43;;;18.30;29.70;;;;;;5037780;28;20041;-58
2022/12/10 05:41:23;;;;;;;14.20;11.50;;;18.30;29.70;;;;;;5037884;28;20118;-54
2022/12/10 05:43:50;;;;;;;15.65;12.68;;;18.30;29.70;;;;;;5037895;28;20082;-54
2022/12/10 05:46:20;;;;;;;16.52;12.30;;;18.30;29.70;;;;;;5037323;28;20030;-57
2022/12/10 05:48:47;;;;;;;16.50;12.68;;;18.30;29.70;;;;;;5037955;28;20138;-56
2022/12/10 05:51:15;;;;;;;16.38;12.73;;;18.30;29.70;;;;;;5057895;28;20040;-57
2022/12/10 05:53:41;;;;;;;18.45;13.10;;;18.30;29.70;;;;;;5057455;28;20120;-55
2022/12/10 05:56:12;;;;;;;17.35;12.88;;;18.30;29.70;;;;;;5057341;28;20025;-57
2022/12/10 05:58:39;;;;;;;16.08;12.35;;;18.30;29.80;;;;;;5039603;28;20522;-55
2022/12/10 06:01:11;;;;;;;14.98;12.38;;;18.30;29.70;;;;;;5058067;28;20028;-56
2022/12/10 06:03:37;;;;;;;15.05;12.00;;;18.30;29.70;;;;;;5055374;28;20116;-56
2022/12/10 06:06:04;;;;;;;17.27;13.35;;;18.30;29.70;;;;;;5056910;28;20062;-52
2022/12/10 06:08:31;;;;;;;15.90;12.18;;;18.30;29.70;;;;;;5044877;28;20037;-57
2022/12/10 06:11:01;;;;;;;18.15;12.85;;;18.30;29.70;;;;;;5037365;28;20516;-56
2022/12/10 06:13:27;;;;;;;16.58;13.25;;;18.30;29.70;;;;;;5037174;28;20068;-58
2022/12/10 06:15:53;;;;;;;16.70;13.48;;;18.30;29.70;;;;;;5019716;28;20033;-57
2022/12/10 06:18:18;;;;;;;15.40;12.60;;;18.30;29.70;;;;;;5047007;28;20048;-55
2022/12/10 06:20:44;;;;;;;16.45;13.10;;;18.30;29.70;;;;;;5057130;28;20029;-54
2022/12/10 06:23:10;;;;;;;15.85;12.93;;;18.30;29.60;;;;;;5056730;28;20115;-53
2022/12/10 06:25:38;;;;;;;16.20;12.70;;;18.30;29.60;;;;;;5057131;28;20340;-52
2022/12/10 06:28:04;;;;;;;15.68;12.45;;;18.30;29.60;;;;;;5056841;28;20025;-56
2022/12/10 06:30:29;;;;;;;16.23;12.48;;;18.30;29.60;;;;;;5056869;28;20033;-57
2022/12/10 06:32:55;;;;;;;14.35;11.77;;;18.30;29.60;;;;;;5047247;28;20033;-53
2022/12/10 06:35:21;;;;;;;15.40;12.70;;;18.30;29.60;;;;;;5036603;28;20444;-53
2022/12/10 06:37:48;;;;;;;16.05;12.52;;;18.30;29.60;;;;;;5036726;28;20327;-56
2022/12/10 06:40:14;;;;;;;16.73;12.75;;;18.30;29.60;;;;;;5036909;28;20370;-52
2022/12/10 06:42:40;;;;;;;15.48;11.85;;;18.30;29.60;;;;;;5036631;28;20033;-57
2022/12/10 06:45:07;;;;;;;15.35;12.57;;;18.30;29.60;;;;;;5036418;28;20036;-59
2022/12/10 06:47:33;;;;;;;15.30;11.98;;;18.30;29.60;;;;;;5044211;28;20047;-52
2022/12/10 06:49:59;;;;;;;15.27;12.60;;;18.30;29.60;;;;;;5056600;28;20041;-58
2022/12/10 06:52:25;;;;;;;15.63;12.13;;;18.30;29.60;;;;;;5056667;28;20112;-52
2022/12/10 06:54:51;;;;;;;15.07;11.95;;;18.30;29.60;;;;;;5056300;28;20028;-54
2022/12/10 06:57:16;;;;;;;15.85;12.57;;;18.30;29.60;;;;;;5056486;28;20044;-55
2022/12/10 06:59:42;;;;;;;16.73;13.30;;;18.30;29.60;;;;;;5056187;28;20357;-57
2022/12/10 07:02:11;;;;;;;15.23;12.32;;;18.30;29.60;;;;;;5048944;28;20102;-56
2022/12/10 07:04:37;;;;;;;15.50;12.98;;;18.30;29.50;;;;;;5036337;28;20099;-58
2022/12/10 07:07:04;;;;;;;16.92;13.23;;;18.30;29.60;;;;;;5035835;28;20453;-58
2022/12/10 07:09:31;;;;;;;18.02;13.40;;;18.30;29.60;;;;;;5035855;28;20022;-59
2022/12/10 07:11:57;;;;;;;16.17;13.05;;;18.30;29.50;;;;;;5018628;28;20099;-58
2022/12/10 07:14:24;;;;;;;16.42;13.35;;;18.30;29.50;;;;;;5036176;28;20057;-55
2022/12/10 07:16:50;;;;;;;16.73;13.32;;;18.30;29.50;;;;;;5035762;28;20053;-55
2022/12/10 07:19:16;;;;;;;17.17;13.48;;;18.30;29.50;;;;;;5036607;28;20041;-54
2022/12/10 07:21:43;;;;;;;17.33;13.48;;;18.30;29.50;;;;;;5036501;28;20048;-53
2022/12/10 07:24:18;;;;;;;16.00;13.27;;;18.30;29.50;;;;;;5036318;28;20360;-58
2022/12/10 07:26:45;;;;;;;16.73;13.38;;;18.30;29.50;;;;;;5036430;28;20029;-57
2022/12/10 07:29:14;;;;;;;16.13;12.60;;;18.30;29.50;;;;;;5035459;28;20038;-58
2022/12/10 07:31:40;;;;;;;17.35;13.55;;;18.30;29.50;;;;;;5035714;28;20121;-53
2022/12/10 07:34:06;;;;;;;16.10;12.52;;;18.30;29.50;;;;;;5054111;28;20059;-57
2022/12/10 07:36:32;;;;;;;16.77;13.50;;;18.30;29.50;;;;;;5055988;28;20028;-54
2022/12/10 07:38:58;;;;;;;16.55;13.63;;;18.30;29.50;;;;;;5055319;28;20040;-57
2022/12/10 07:41:25;;;;;;;15.88;13.23;;;18.40;29.60;;;;;;5055840;28;20158;-58
2022/12/10 07:43:51;;;;;;;16.67;13.23;;;18.30;29.50;;;;;;5055092;28;20095;-56
2022/12/10 07:46:26;;;;;;;17.80;13.88;;;18.30;29.50;;;;;;5055760;28;20076;-58
2022/12/10 07:48:53;;;;;;;18.27;13.73;;;18.40;29.50;;;;;;5054129;28;20390;-56
2022/12/10 07:51:20;;;;;;;18.05;13.93;;;18.30;29.50;;;;;;5055279;28;20040;-54
2022/12/10 07:53:47;;;;;;;17.58;14.63;;;18.30;29.50;;;;;;5055417;28;20044;-58
2022/12/10 07:56:13;;;;;;;16.48;13.00;;;18.30;29.50;;;;;;5055162;28;20033;-56
2022/12/10 07:58:44;;;;;;;16.50;13.30;;;18.30;29.50;;;;;;5055224;28;20372;-58
2022/12/10 08:01:13;;;;;;;17.83;14.10;;;18.30;29.50;;;;;;5055261;28;20097;-57
2022/12/10 08:03:39;;;;;;;17.73;13.38;;;18.30;29.50;;;;;;5054563;28;20033;-57
2022/12/10 08:06:07;;;;;;;18.08;13.57;;;18.30;29.40;;;;;;5055547;28;20353;-57
2022/12/10 08:08:35;;;;;;;17.58;13.20;;;18.40;29.50;;;;;;5042395;28;20469;-55
2022/12/10 08:11:02;;;;;;;16.13;12.95;;;18.30;29.40;;;;;;5047889;28;20037;-57
2022/12/10 08:13:28;;;;;;;16.48;13.23;;;18.30;29.40;;;;;;5037738;28;20048;-57
2022/12/10 08:15:59;;;;;;;18.17;13.88;;;18.30;29.40;;;;;;5054220;28;20118;-57
2022/12/10 08:18:26;;;;;;;17.95;13.90;;;18.30;29.40;;;;;;5042295;28;20048;-57
2022/12/10 08:20:52;;;;;;;17.63;13.50;;;18.30;29.40;;;;;;5035053;28;20030;-53
2022/12/10 08:23:17;;;;;;;17.58;13.50;;;18.30;29.40;;;;;;5035131;28;20117;-56
2022/12/10 08:25:43;;;;;;;18.60;13.80;;;18.30;29.50;;;;;;5034952;28;20452;-54
2022/12/10 08:28:09;;;;;;;19.15;14.75;;;18.30;29.50;;;;;;5034713;28;20437;-54
2022/12/10 08:30:35;;;;;;;17.70;13.85;;;18.40;29.50;;;;;;5034930;28;20116;-55
2022/12/10 08:33:01;;;;;;;17.15;13.48;;;18.40;29.50;;;;;;5042142;28;20029;-57
2022/12/10 08:35:26;;;;;;;19.45;14.32;;;18.40;29.50;;;;;;5055029;28;20039;-51
2022/12/10 08:37:52;;;;;;;17.00;13.50;;;18.40;29.50;;;;;;5037386;28;20041;-52
2022/12/10 08:40:18;;;;;;;16.45;13.40;;;18.40;29.50;;;;;;5037046;28;20028;-57
2022/12/10 08:42:44;;;;;;;17.08;13.50;;;18.30;29.50;;;;;;5054497;28;20040;-56
2022/12/10 08:45:10;;;;;;;18.52;13.82;;;18.40;29.50;;;;;;5054734;28;20033;-58
2022/12/10 08:47:35;;;;;;;16.33;13.38;;;18.40;29.60;;;;;;5045186;28;20033;-57
2022/12/10 08:50:01;;;;;;;16.58;12.93;;;18.30;29.50;;;;;;5036707;28;20086;-55
2022/12/10 08:52:29;;;;;;;18.23;14.18;;;18.40;29.60;;;;;;5054825;28;20089;-51
2022/12/10 08:54:55;;;;;;;16.85;13.38;;;18.40;29.60;;;;;;5041729;28;20018;-55
2022/12/10 08:57:21;;;;;;;14.48;11.98;;;18.40;29.60;;;;;;5034513;28;20037;-54
2022/12/10 08:59:46;;;;;;;15.85;12.65;;;18.40;29.60;;;;;;5034665;28;20029;-54
2022/12/10 09:02:12;;;;;;;15.30;12.82;;;18.40;29.60;;;;;;5034899;28;20337;-55
2022/12/10 09:04:39;;;;;;;15.27;12.27;;;18.40;29.60;;;;;;5034392;28;20038;-58
2022/12/10 09:07:07;;;;;;;14.52;11.80;;;18.40;29.60;;;;;;5034841;28;20041;-55
2022/12/10 09:09:33;;;;;;;14.43;11.60;;;18.40;29.60;;;;;;5035100;28;20026;-55
2022/12/10 09:11:58;;;;;;;14.77;12.10;;;18.40;29.60;;;;;;5034047;28;20441;-56
2022/12/10 09:14:25;;;;;;;15.95;12.18;;;18.40;29.60;;;;;;5035265;28;20068;-56
2022/12/10 09:16:51;;;;;;;15.30;12.20;;;18.40;29.60;;;;;;5034895;28;20075;-54
2022/12/10 09:19:17;;;;;;;14.43;11.38;;;18.40;29.60;;;;;;5052080;28;20037;-53
2022/12/10 09:21:43;;;;;;;14.25;11.43;;;18.40;29.60;;;;;;5054281;28;20060;-55
2022/12/10 09:24:09;;;;;;;15.05;11.73;;;18.40;29.70;;;;;;5052704;28;20115;-56
2022/12/10 09:26:35;;;;;;;13.63;11.07;;;18.40;29.70;;;;;;5036251;28;20075;-53
2022/12/10 09:29:01;;;;;;;14.20;11.60;;;18.40;29.70;;;;;;5054539;28;20033;-57
2022/12/10 09:31:27;;;;;;;13.65;11.00;;;18.40;29.70;;;;;;5054351;28;20471;-58
2022/12/10 09:33:53;;;;;;;13.82;11.25;;;18.40;30.10;;;;;;5054079;28;20029;-53
2022/12/10 09:36:21;;;;;;;14.38;10.95;;;18.40;29.70;;;;;;5054237;28;20025;-59
2022/12/10 09:38:47;;;;;;;12.65;10.80;;;18.40;29.70;;;;;;5055953;28;20498;-54
2022/12/10 09:41:39;;;;;;;13.80;10.88;;;18.40;29.70;;;;;;5057701;28;20037;-54
2022/12/10 09:44:21;;;;;;;13.90;11.07;;;18.40;29.70;;;;;;5057626;28;20044;-51
2022/12/10 09:46:56;;;;;;;13.20;10.80;;;18.40;29.70;;;;;;5057639;28;20033;-57
2022/12/10 09:49:40;;;;;;;14.13;11.65;;;18.40;29.70;;;;;;5058284;28;20041;-57
2022/12/10 09:52:12;;;;;;;13.85;10.70;;;18.40;29.70;;;;;;5056879;28;20029;-52
2022/12/10 09:54:58;;;;;;;14.43;11.18;;;18.40;29.80;;;;;;5055274;28;20021;-55
2022/12/10 09:57:35;;;;;;;13.25;11.05;;;18.40;29.80;;;;;;5057300;28;20072;-53
2022/12/10 10:00:29;;;;;;;14.05;11.00;;;18.40;29.80;;;;;;5057341;28;20037;-58
2022/12/10 10:02:59;;;;;;;12.90;10.80;;;18.40;29.80;;;;;;5057603;28;20108;-57
2022/12/10 10:05:31;;;;;;;13.88;11.27;;;18.40;29.80;;;;;;5057515;28;20428;-57
2022/12/10 10:08:01;;;;;;;14.75;11.50;;;18.40;29.80;;;;;;5049600;28;20034;-56
2022/12/10 10:10:36;;;;;;;11.82;9.73;;;18.40;29.80;;;;;;5057167;28;20025;-54
2022/12/10 10:13:08;;;;;;;14.32;10.77;;;18.40;29.80;;;;;;5056640;28;20084;-52
2022/12/10 10:15:37;;;;;;;13.93;11.15;;;18.40;29.80;;;;;;5057075;28;20037;-55
2022/12/10 10:18:27;;;;;;;14.15;10.85;;;18.40;30.30;;;;;;5056274;28;20040;-53
2022/12/10 10:20:54;;;;;;;13.52;11.10;;;18.40;29.80;;;;;;5057471;28;20041;-52
2022/12/10 10:23:19;;;;;;;14.15;10.85;;;18.40;30.20;;;;;;5057105;28;20104;-54
2022/12/10 10:25:45;;;;;;;14.52;11.32;;;18.40;29.80;;;;;;5056908;28;20116;-53
2022/12/10 10:28:15;;;;;;;13.43;10.75;;;18.40;29.80;;;;;;5054670;28;20484;-53
2022/12/10 10:30:44;;;;;;;14.05;11.55;;;18.40;29.80;;;;;;5056464;28;20490;-55
2022/12/10 10:33:12;;;;;;;14.27;11.63;;;18.40;29.80;;;;;;5046146;28;20111;-56
2022/12/10 10:35:43;;;;;;;13.63;11.15;;;18.40;29.90;;;;;;5019497;28;20088;-57
2022/12/10 10:38:27;;;;;;;13.25;10.50;;;18.40;29.90;;;;;;5036673;28;20037;-54
2022/12/10 10:40:59;;;;;;;14.05;11.35;;;18.40;29.90;;;;;;5036829;28;20048;-54
2022/12/10 10:43:41;;;;;;;14.55;11.35;;;18.40;29.90;;;;;;5036884;28;20116;-56
2022/12/10 10:46:16;;;;;;;13.30;10.82;;;18.40;29.90;;;;;;5036651;28;20079;-56
2022/12/10 10:48:43;;;;;;;14.20;11.35;;;18.40;29.90;;;;;;5019137;28;20029;-58
2022/12/10 10:51:22;;;;;;;15.40;11.93;;;18.40;29.90;;;;;;5055794;28;20048;-57
2022/12/10 10:53:54;;;;;;;14.43;11.57;;;18.40;29.90;;;;;;5056568;28;20041;-56
2022/12/10 10:56:26;;;;;;;14.63;11.32;;;18.40;29.90;;;;;;5056219;28;20025;-56
2022/12/10 10:58:52;;;;;;;14.82;11.60;;;18.40;29.90;;;;;;5056193;28;20149;-57
2022/12/10 11:01:18;;;;;;;15.57;11.88;;;18.40;29.90;;;;;;5056093;28;20529;-54
2022/12/10 11:03:50;;;;;;;14.23;10.88;;;18.40;29.90;;;;;;5054771;28;20383;-56
2022/12/10 11:06:16;;;;;;;14.93;11.63;;;18.50;30.00;;;;;;5039799;28;20076;-54
2022/12/10 11:08:45;;;;;;;12.93;10.70;;;18.40;29.90;;;;;;5036136;28;20099;-54
2022/12/10 11:11:31;;;;;;;13.38;11.20;;;18.40;29.90;;;;;;5036460;28;20034;-50
2022/12/10 11:14:40;;;;;;;13.38;10.70;;;18.40;29.90;;;;;;5055529;28;20039;-58
2022/12/10 11:17:09;;;;;;;13.30;10.77;;;18.50;30.00;;;;;;5051447;28;20120;-53
2022/12/10 11:19:41;;;;;;;14.07;10.15;;;18.40;29.90;;;;;;5036413;28;20068;-57
2022/12/10 11:22:32;;;;;;;15.55;11.65;;;18.40;29.90;;;;;;5052985;28;20107;-55
2022/12/10 11:24:59;;;;;;;13.68;10.95;;;18.40;29.90;;;;;;5034655;28;20115;-58
2022/12/10 11:27:44;;;;;;;11.95;10.02;;;18.40;29.90;;;;;;5036317;28;20029;-56
2022/12/10 11:30:24;;;;;;;14.95;11.63;;;18.50;30.00;;;;;;5035891;28;20140;-57
2022/12/10 11:32:59;;;;;;;13.02;10.13;;;18.50;30.00;;;;;;5036505;28;20060;-56
2022/12/10 11:35:43;;;;;;;14.07;10.30;;;18.50;30.00;;;;;;5035739;28;20030;-58
2022/12/10 11:38:30;;;;;;;13.05;10.27;;;18.50;30.00;;;;;;5036919;28;20357;-57
2022/12/10 11:41:06;;;;;;;13.13;10.32;;;18.50;30.00;;;;;;5035370;28;20021;-58
2022/12/10 11:44:00;;;;;;;13.10;10.27;;;18.50;30.00;;;;;;5035351;28;20032;-59
2022/12/10 11:46:33;;;;;;;14.07;10.85;;;18.50;30.00;;;;;;5018165;28;20361;-57
2022/12/10 11:49:14;;;;;;;12.95;10.05;;;18.50;30.00;;;;;;5035583;28;20053;-53
2022/12/10 11:51:43;;;;;;;12.90;9.85;;;18.50;30.00;;;;;;5035844;28;20076;-53
2022/12/10 11:54:17;;;;;;;12.35;10.15;;;18.50;30.00;;;;;;5055718;28;20032;-57
2022/12/10 11:56:44;;;;;;;13.98;10.27;;;18.50;30.00;;;;;;5055274;28;20040;-54
2022/12/10 11:59:23;;;;;;;12.43;9.60;;;18.50;30.00;;;;;;5055343;28;20044;-55
2022/12/10 12:02:02;;;;;;;11.70;9.75;;;18.50;30.00;;;;;;5054745;28;20041;-54
2022/12/10 12:04:45;;;;;;;13.75;10.32;;;18.50;30.00;;;;;;5055086;28;20029;-58
2022/12/10 12:07:13;;;;;;;12.85;9.93;;;18.50;30.00;;;;;;5020604;28;20124;-57
2022/12/10 12:10:08;;;;;;;12.82;10.10;;;18.50;30.00;;;;;;5035270;28;20063;-49
2022/12/10 12:12:51;;;;;;;12.18;9.70;;;18.50;30.00;;;;;;4976573;28;20143;-56
2022/12/10 12:15:25;;;;;;;12.73;10.15;;;18.50;30.00;;;;;;4996034;28;20073;-52
2022/12/10 12:17:57;;;;;;;;;;;18.50;30.00;;;;;;5002292;28;20040;-57
2022/12/10 12:20:33;;;;;;;13.93;10.45;;;18.50;30.00;;;;;;5014625;28;19914;-55
2022/12/10 12:23:14;;;;;;;13.35;10.05;;;18.50;30.00;;;;;;5014927;28;20033;-56
2022/12/10 12:25:51;;;;;;;13.35;10.68;;;18.40;30.00;;;;;;5015305;28;20500;-55
2022/12/10 12:28:31;;;;;;;11.75;9.57;;;18.50;30.00;;;;;;5014986;28;20038;-50
2022/12/10 12:31:15;;;;;;;12.45;9.95;;;18.50;30.00;;;;;;5014222;28;20100;-58
2022/12/10 12:33:53;;;;;;;11.20;9.20;;;18.50;30.00;;;;;;4999557;28;20049;-55
2022/12/10 12:36:25;;;;;;;11.55;9.40;;;18.40;30.00;;;;;;4995445;28;20126;-55
2022/12/10 12:39:24;;;;;;;10.43;8.95;;;18.50;30.00;;;;;;4995562;28;20418;-55
2022/12/10 12:41:55;;;;;;;12.48;9.57;;;18.50;30.00;;;;;;4996069;28;20031;-59
2022/12/10 12:44:40;;;;;;;11.38;9.25;;;18.50;30.00;;;;;;4994209;28;20417;-55
2022/12/10 12:47:33;;;;;;;12.32;10.15;;;18.50;30.00;;;;;;4994568;28;20034;-56
2022/12/10 12:50:01;;;;;;;11.35;9.35;;;18.50;30.00;;;;;;4995689;28;20030;-56
2022/12/10 12:52:33;;;;;;;11.30;9.30;;;18.50;30.00;;;;;;4995494;28;20031;-56
2022/12/10 12:55:03;;;;;;;12.77;10.02;;;18.50;30.00;;;;;;5010275;28;20038;-57
2022/12/10 12:57:53;;;;;;;12.25;9.38;;;18.50;30.00;;;;;;5014973;28;20042;-56